Pelican — WDB8062 — position and weather

sailwx.info

Track history (hours):
 
Tides and Currents Weather Stations Pressure Air Temp Water Temp Dewpoint Dewpoint Depression Visibility Wind Speed Wind Dir Waves Ship Positions

Pelican

Owner: Higman Barge Lines, Inc., Orange, TX. More information available from US FCC via Universal Licensing System.

Last reported at 2018-Jun-03 09:36 UTC. Time now 2018-Jun-18 22:43 UTC.
Position N 28°39' W 096°04'.
Warning: this ship's position is 15 days out of date.

Length 22 m; draft 2.7 m.

Type: . MMSI: 366952310.

Date/timePositionNaut miles runAvg speedWind from/ knotsBaromVisibWave heightAir tempDewpointWater temp
2018-Jun-03 09:36N 28°39' W 096°04'1 5.3
2018-Jun-03 09:30N 28°39' W 096°03'16 2.1
2018-Jun-03 02:01N 28°45' W 095°46'1 4.8
2018-Jun-03 01:47N 28°45' W 095°45'21 3.8
2018-Jun-02 20:16N 28°54' W 095°23'1 2.9
2018-Jun-02 19:53N 28°54' W 095°22'43 3.3
2018-Jun-02 06:49N 29°28' W 094°51'3 8.0
2018-Jun-02 06:30N 29°30' W 094°52'4 7.5
2018-Jun-02 06:00N 29°33' W 094°55'4 7.1
2018-Jun-02 05:30N 29°36' W 094°57'4 7.3
2018-Jun-02 05:00N 29°40' W 094°58'3 6.5
2018-Jun-02 04:30N 29°42' W 095°01'9 0.3
2018-May-31 19:47N 29°45' W 095°11'2 6.6
2018-May-31 19:30N 29°44' W 095°09'5 0.3
2018-May-31 05:23N 29°47' W 095°04'0 0.0
2018-May-30 09:38N 29°47' W 095°04'0 0.0
2018-May-30 07:19N 29°47' W 095°04'0 0.0
2018-May-30 06:53N 29°47' W 095°04'0 0.3
2018-May-30 06:27N 29°47' W 095°04'0 0.0
2018-May-30 05:48N 29°47' W 095°04'0 0.0
2018-May-30 05:30N 29°47' W 095°04'0 0.2
2018-May-30 05:00N 29°47' W 095°04'0 0.3
2018-May-30 04:30N 29°47' W 095°04'0 0.2
2018-May-30 04:00N 29°47' W 095°04'0 0.0
2018-May-30 03:30N 29°47' W 095°04'0 0.0
2018-May-30 03:00N 29°47' W 095°04'0 0.0
2018-May-30 02:30N 29°47' W 095°04'1 0.8
2018-May-30 01:37N 29°47' W 095°05'0 0.0
2018-May-30 01:29N 29°47' W 095°05'0 0.0
2018-May-29 14:05N 29°47' W 095°05'0 0.0
2018-May-29 13:54N 29°47' W 095°05'0 0.0
2018-May-29 13:29N 29°47' W 095°05'0 0.0
2018-May-29 13:00N 29°47' W 095°05'0 0.0
2018-May-29 12:30N 29°47' W 095°05'0 0.0
2018-May-29 12:00N 29°47' W 095°05'0 0.0
2018-May-29 11:26N 29°47' W 095°05'0 0.0
2018-May-29 10:55N 29°47' W 095°05'0 0.0
2018-May-29 10:30N 29°47' W 095°05'0 0.0
2018-May-29 10:00N 29°47' W 095°05'0 0.0
2018-May-29 09:30N 29°47' W 095°05'0 0.0
2018-May-29 08:53N 29°47' W 095°05'0 0.0
2018-May-29 08:30N 29°47' W 095°05'0 0.0
2018-May-29 07:58N 29°47' W 095°05'0 0.0
2018-May-29 07:29N 29°47' W 095°05'0 0.0
2018-May-29 06:58N 29°47' W 095°05'0 0.0
2018-May-29 06:18N 29°47' W 095°05'0 0.0
2018-May-29 06:00N 29°47' W 095°05'0 0.0
2018-May-28 12:19N 29°47' W 095°05'0 0.0
2018-May-28 11:42N 29°47' W 095°05'0 0.0
2018-May-28 11:03N 29°47' W 095°05'0 0.0
2018-May-28 10:49N 29°47' W 095°05'0 0.0
2018-May-28 10:26N 29°47' W 095°05'0 0.0
2018-May-28 07:26N 29°47' W 095°05'1 0.1
2018-May-27 23:14N 29°46' W 095°05'2 7.4
2018-May-27 23:00N 29°44' W 095°04'3 6.2
2018-May-27 22:30N 29°42' W 095°01'4 7.5
2018-May-27 22:00N 29°39' W 094°58'4 7.2
2018-May-27 21:30N 29°36' W 094°57'3 6.7
2018-May-27 21:00N 29°33' W 094°55'4 7.8
2018-May-27 20:30N 29°30' W 094°52'5 7.8
2018-May-27 19:51N 29°25' W 094°50'3 7.2
2018-May-27 19:30N 29°23' W 094°49'2 4.8
2018-May-27 19:00N 29°21' W 094°49'0 0.0
2018-May-27 18:30N 29°21' W 094°49'0 0.0
2018-May-27 18:00N 29°21' W 094°49'0 0.0
2018-May-27 17:30N 29°21' W 094°49'0 0.0
2018-May-27 17:00N 29°21' W 094°49'0 0.0
2018-May-27 16:30N 29°21' W 094°49'0 0.0
2018-May-27 15:59N 29°21' W 094°49'0 0.0
2018-May-27 15:30N 29°21' W 094°49'0 0.0
2018-May-27 15:00N 29°21' W 094°49'0 0.0
2018-May-27 14:29N 29°21' W 094°49'0 0.0
2018-May-27 14:01N 29°21' W 094°49'0 0.0
2018-May-27 13:30N 29°21' W 094°49'0 0.0
2018-May-27 13:00N 29°21' W 094°49'0 0.0
2018-May-27 12:30N 29°21' W 094°49'0 0.0
2018-May-27 12:00N 29°21' W 094°49'0 0.0
2018-May-27 11:30N 29°21' W 094°49'0 0.0
2018-May-27 11:00N 29°21' W 094°49'0 0.0
2018-May-27 10:30N 29°21' W 094°49'0 0.0
2018-May-27 10:00N 29°21' W 094°49'2 3.5
2018-May-27 09:30N 29°20' W 094°51'3 5.3
2018-May-27 09:00N 29°18' W 094°53'2 4.6
2018-May-27 08:30N 29°17' W 094°56'3 5.4
2018-May-27 08:00N 29°17' W 094°59'3 5.7
2018-May-27 07:30N 29°15' W 095°01'2 3.2
2018-May-27 07:00N 29°13' W 095°02'1 1.7
2018-May-27 06:30N 29°13' W 095°02'2 4.2
2018-May-27 06:00N 29°11' W 095°05'2 4.6
2018-May-27 05:30N 29°10' W 095°07'3 6.6
2018-May-27 05:00N 29°08' W 095°10'0 0.9
2018-May-27 04:31N 29°08' W 095°10'1 2.9
2018-May-27 04:00N 29°07' W 095°11'0 0.2
2018-May-27 03:30N 29°07' W 095°12'0 0.0
2018-May-27 03:00N 29°07' W 095°12'0 0.0
2018-May-27 02:30N 29°07' W 095°12'0 0.1
2018-May-27 02:00N 29°07' W 095°12'2 4.8
2018-May-27 01:30N 29°05' W 095°13'2 3.4
2018-May-27 01:00N 29°03' W 095°13'2 4.2
2018-May-27 00:30N 29°01' W 095°14'3 5.6
2018-May-26 23:58N 28°59' W 095°16'8 2.9
2018-May-26 21:08N 28°54' W 095°24'1 2.7
2018-May-26 20:50N 28°54' W 095°23'  
Track history (hours):
 
Tides and Currents Weather Stations Pressure Air Temp Water Temp Dewpoint Dewpoint Depression Visibility Wind Speed Wind Dir Waves Ship Positions

Pelican

Owner: Higman Barge Lines, Inc., Orange, TX. More information available from US FCC via Universal Licensing System.

Last reported at 2018-Jun-03 09:36 UTC. Time now 2018-Jun-18 22:43 UTC.
Position N 28°39' W 096°04'.
Warning: this ship's position is 15 days out of date.

Length 22 m; draft 2.7 m.

Type: . MMSI: 366952310.

Date/timePositionNaut miles runAvg speedWind from/ knotsBaromVisibWave heightAir tempDewpointWater temp
2018-Jun-03 09:36N 28°39' W 096°04'1 5.3
2018-Jun-03 09:30N 28°39' W 096°03'16 2.1
2018-Jun-03 02:01N 28°45' W 095°46'1 4.8
2018-Jun-03 01:47N 28°45' W 095°45'21 3.8
2018-Jun-02 20:16N 28°54' W 095°23'1 2.9
2018-Jun-02 19:53N 28°54' W 095°22'43 3.3
2018-Jun-02 06:49N 29°28' W 094°51'3 8.0
2018-Jun-02 06:30N 29°30' W 094°52'4 7.5
2018-Jun-02 06:00N 29°33' W 094°55'4 7.1
2018-Jun-02 05:30N 29°36' W 094°57'4 7.3
2018-Jun-02 05:00N 29°40' W 094°58'3 6.5
2018-Jun-02 04:30N 29°42' W 095°01'9 0.3
2018-May-31 19:47N 29°45' W 095°11'2 6.6
2018-May-31 19:30N 29°44' W 095°09'5 0.3
2018-May-31 05:23N 29°47' W 095°04'0 0.0
2018-May-30 09:38N 29°47' W 095°04'0 0.0
2018-May-30 07:19N 29°47' W 095°04'0 0.0
2018-May-30 06:53N 29°47' W 095°04'0 0.3
2018-May-30 06:27N 29°47' W 095°04'0 0.0
2018-May-30 05:48N 29°47' W 095°04'0 0.0
2018-May-30 05:30N 29°47' W 095°04'0 0.2
2018-May-30 05:00N 29°47' W 095°04'0 0.3
2018-May-30 04:30N 29°47' W 095°04'0 0.2
2018-May-30 04:00N 29°47' W 095°04'0 0.0
2018-May-30 03:30N 29°47' W 095°04'0 0.0
2018-May-30 03:00N 29°47' W 095°04'0 0.0
2018-May-30 02:30N 29°47' W 095°04'1 0.8
2018-May-30 01:37N 29°47' W 095°05'0 0.0
2018-May-30 01:29N 29°47' W 095°05'0 0.0
2018-May-29 14:05N 29°47' W 095°05'0 0.0
2018-May-29 13:54N 29°47' W 095°05'0 0.0
2018-May-29 13:29N 29°47' W 095°05'0 0.0
2018-May-29 13:00N 29°47' W 095°05'0 0.0
2018-May-29 12:30N 29°47' W 095°05'0 0.0
2018-May-29 12:00N 29°47' W 095°05'0 0.0
2018-May-29 11:26N 29°47' W 095°05'0 0.0
2018-May-29 10:55N 29°47' W 095°05'0 0.0
2018-May-29 10:30N 29°47' W 095°05'0 0.0
2018-May-29 10:00N 29°47' W 095°05'0 0.0
2018-May-29 09:30N 29°47' W 095°05'0 0.0
2018-May-29 08:53N 29°47' W 095°05'0 0.0
2018-May-29 08:30N 29°47' W 095°05'0 0.0
2018-May-29 07:58N 29°47' W 095°05'0 0.0
2018-May-29 07:29N 29°47' W 095°05'0 0.0
2018-May-29 06:58N 29°47' W 095°05'0 0.0
2018-May-29 06:18N 29°47' W 095°05'0 0.0
2018-May-29 06:00N 29°47' W 095°05'0 0.0
2018-May-28 12:19N 29°47' W 095°05'0 0.0
2018-May-28 11:42N 29°47' W 095°05'0 0.0
2018-May-28 11:03N 29°47' W 095°05'0 0.0
2018-May-28 10:49N 29°47' W 095°05'0 0.0
2018-May-28 10:26N 29°47' W 095°05'0 0.0
2018-May-28 07:26N 29°47' W 095°05'1 0.1
2018-May-27 23:14N 29°46' W 095°05'2 7.4
2018-May-27 23:00N 29°44' W 095°04'3 6.2
2018-May-27 22:30N 29°42' W 095°01'4 7.5
2018-May-27 22:00N 29°39' W 094°58'4 7.2
2018-May-27 21:30N 29°36' W 094°57'3 6.7
2018-May-27 21:00N 29°33' W 094°55'4 7.8
2018-May-27 20:30N 29°30' W 094°52'5 7.8
2018-May-27 19:51N 29°25' W 094°50'3 7.2
2018-May-27 19:30N 29°23' W 094°49'2 4.8
2018-May-27 19:00N 29°21' W 094°49'0 0.0
2018-May-27 18:30N 29°21' W 094°49'0 0.0
2018-May-27 18:00N 29°21' W 094°49'0 0.0
2018-May-27 17:30N 29°21' W 094°49'0 0.0
2018-May-27 17:00N 29°21' W 094°49'0 0.0
2018-May-27 16:30N 29°21' W 094°49'0 0.0
2018-May-27 15:59N 29°21' W 094°49'0 0.0
2018-May-27 15:30N 29°21' W 094°49'0 0.0
2018-May-27 15:00N 29°21' W 094°49'0 0.0
2018-May-27 14:29N 29°21' W 094°49'0 0.0
2018-May-27 14:01N 29°21' W 094°49'0 0.0
2018-May-27 13:30N 29°21' W 094°49'0 0.0
2018-May-27 13:00N 29°21' W 094°49'0 0.0
2018-May-27 12:30N 29°21' W 094°49'0 0.0
2018-May-27 12:00N 29°21' W 094°49'0 0.0
2018-May-27 11:30N 29°21' W 094°49'0 0.0
2018-May-27 11:00N 29°21' W 094°49'0 0.0
2018-May-27 10:30N 29°21' W 094°49'0 0.0
2018-May-27 10:00N 29°21' W 094°49'2 3.5
2018-May-27 09:30N 29°20' W 094°51'3 5.3
2018-May-27 09:00N 29°18' W 094°53'2 4.6
2018-May-27 08:30N 29°17' W 094°56'3 5.4
2018-May-27 08:00N 29°17' W 094°59'3 5.7
2018-May-27 07:30N 29°15' W 095°01'2 3.2
2018-May-27 07:00N 29°13' W 095°02'1 1.7
2018-May-27 06:30N 29°13' W 095°02'2 4.2
2018-May-27 06:00N 29°11' W 095°05'2 4.6
2018-May-27 05:30N 29°10' W 095°07'3 6.6
2018-May-27 05:00N 29°08' W 095°10'0 0.9
2018-May-27 04:31N 29°08' W 095°10'1 2.9
2018-May-27 04:00N 29°07' W 095°11'0 0.2
2018-May-27 03:30N 29°07' W 095°12'0 0.0
2018-May-27 03:00N 29°07' W 095°12'0 0.0
2018-May-27 02:30N 29°07' W 095°12'0 0.1
2018-May-27 02:00N 29°07' W 095°12'2 4.8
2018-May-27 01:30N 29°05' W 095°13'2 3.4
2018-May-27 01:00N 29°03' W 095°13'2 4.2
2018-May-27 00:30N 29°01' W 095°14'3 5.6
2018-May-26 23:58N 28°59' W 095°16'8 2.9
2018-May-26 21:08N 28°54' W 095°24'1 2.7
2018-May-26 20:50N 28°54' W 095°23'  

Dump ship's entire track history